createdAt,value
2023-05-12T00:01:34.762Z,33.33
2023-05-12T00:04:21.914Z,39.90
2023-05-12T00:07:08.509Z,37.60
2023-05-12T00:09:54.686Z,35.40
2023-05-12T00:12:40.894Z,33.92
2023-05-12T00:15:27.416Z,35.97
2023-05-12T00:18:13.795Z,37.70
2023-05-12T00:20:59.918Z,33.80
2023-05-12T00:23:48.512Z,36.00
2023-05-12T00:26:34.600Z,35.72
2023-05-12T00:29:23.481Z,40.28
2023-05-12T00:32:09.899Z,34.10
2023-05-12T00:34:57.245Z,40.35
2023-05-12T00:37:44.263Z,35.72
2023-05-12T00:40:30.683Z,35.30
2023-05-12T00:43:16.954Z,39.13
2023-05-12T00:46:05.822Z,41.00
2023-05-12T00:48:52.583Z,33.45
2023-05-12T00:51:38.892Z,35.65
2023-05-12T00:54:26.959Z,43.92
2023-05-12T00:57:13.659Z,38.70
2023-05-12T01:00:02.194Z,43.60
2023-05-12T01:02:49.006Z,35.70
2023-05-12T01:05:42.979Z,48.78
2023-05-12T01:08:31.360Z,44.90
2023-05-12T01:11:17.812Z,36.22
2023-05-12T01:14:04.529Z,38.30
2023-05-12T01:16:53.494Z,38.05
2023-05-12T01:20:19.020Z,40.75
2023-05-12T01:23:07.002Z,35.42
2023-05-12T01:25:56.566Z,34.03
2023-05-12T01:28:43.437Z,37.35
2023-05-12T01:31:30.266Z,40.97
2023-05-12T01:34:19.306Z,34.50
2023-05-12T01:37:09.723Z,37.85
2023-05-12T01:39:56.761Z,40.00
2023-05-12T01:42:43.389Z,32.83
2023-05-12T01:45:31.331Z,37.45
2023-05-12T01:48:17.491Z,41.65
2023-05-12T01:51:07.747Z,35.33
2023-05-12T01:53:54.106Z,39.10
2023-05-12T01:56:41.398Z,39.80
2023-05-12T02:02:31.897Z,37.35
2023-05-12T02:05:19.227Z,32.75
2023-05-12T02:08:08.591Z,46.10
2023-05-12T02:11:07.720Z,34.80
2023-05-12T02:13:54.998Z,39.50
2023-05-12T02:16:45.251Z,43.55
2023-05-12T02:19:31.699Z,38.78
2023-05-12T02:22:19.489Z,34.78
2023-05-12T02:25:06.603Z,45.33
2023-05-12T02:27:56.270Z,37.67
2023-05-12T02:30:50.169Z,39.00
2023-05-12T02:33:36.934Z,38.55
2023-05-12T02:36:23.513Z,45.67
2023-05-12T02:42:35.865Z,35.28
2023-05-12T02:45:22.229Z,39.90
2023-05-12T02:48:08.678Z,38.88
2023-05-12T02:50:57.690Z,33.03
2023-05-12T02:53:44.328Z,34.50
2023-05-12T02:56:33.185Z,31.50
2023-05-12T02:59:20.595Z,34.70
2023-05-12T03:02:07.824Z,37.63
2023-05-12T03:04:54.344Z,39.90
2023-05-12T03:07:40.437Z,34.85
2023-05-12T03:10:27.272Z,44.08
2023-05-12T03:13:14.349Z,37.85
2023-05-12T03:16:01.900Z,30.98
2023-05-12T03:18:49.799Z,32.58
2023-05-12T03:21:36.009Z,33.95
2023-05-12T03:24:23.248Z,42.28
2023-05-12T03:27:09.689Z,39.78
2023-05-12T03:29:56.805Z,34.65
2023-05-12T03:32:44.483Z,31.10
2023-05-12T03:35:34.672Z,32.40
2023-05-12T03:38:22.551Z,36.30
2023-05-12T03:41:08.937Z,55.17
2023-05-12T03:43:56.047Z,58.33
2023-05-12T03:46:42.901Z,51.55
2023-05-12T03:49:29.325Z,47.25
2023-05-12T03:52:16.007Z,41.08
2023-05-12T03:55:04.287Z,41.60
2023-05-12T03:57:50.719Z,33.38
2023-05-12T04:00:36.987Z,38.65
2023-05-12T04:03:26.955Z,40.28
2023-05-12T04:06:14.645Z,55.17
2023-05-12T04:09:04.064Z,36.97
2023-05-12T04:11:51.526Z,36.08
2023-05-12T04:14:43.196Z,39.22
2023-05-12T04:17:29.888Z,33.70
2023-05-12T04:20:16.242Z,36.67
2023-05-12T04:23:02.468Z,32.47
2023-05-12T04:25:49.383Z,36.90
2023-05-12T04:28:37.251Z,45.97
2023-05-12T04:31:23.577Z,34.85
2023-05-12T04:34:12.456Z,33.25
2023-05-12T04:36:58.909Z,26.50
2023-05-12T04:39:45.227Z,34.85
2023-05-12T04:42:34.186Z,36.95
2023-05-12T04:45:20.875Z,28.92
2023-05-12T04:48:07.701Z,23.58
2023-05-12T04:50:54.486Z,26.90
2023-05-12T04:53:41.539Z,33.25
2023-05-12T04:56:28.167Z,29.88
2023-05-12T04:59:16.546Z,24.95
2023-05-12T05:02:05.278Z,23.55
2023-05-12T05:04:55.404Z,23.85
2023-05-12T05:07:44.303Z,27.95
2023-05-12T05:10:31.692Z,42.00
2023-05-12T05:13:18.004Z,29.60
2023-05-12T05:16:05.419Z,27.05
2023-05-12T05:18:53.059Z,22.52
2023-05-12T05:21:39.290Z,27.35
2023-05-12T05:24:26.089Z,34.08
2023-05-12T05:27:14.149Z,25.63
2023-05-12T05:30:00.683Z,25.15
2023-05-12T05:32:47.508Z,19.20
2023-05-12T05:35:34.113Z,19.95
2023-05-12T05:38:20.474Z,23.90
2023-05-12T05:41:07.777Z,25.02
2023-05-12T05:43:54.836Z,17.98
2023-05-12T05:46:41.073Z,25.45
2023-05-12T05:49:27.175Z,25.90
2023-05-12T05:52:15.160Z,25.25
2023-05-12T05:55:01.850Z,20.98
2023-05-12T05:57:49.614Z,16.15
2023-05-12T06:00:35.820Z,17.25
2023-05-12T06:03:22.119Z,13.25
2023-05-12T06:06:08.701Z,16.98
2023-05-12T06:08:56.243Z,18.33
2023-05-12T06:11:42.704Z,14.13
2023-05-12T06:14:30.349Z,22.27
2023-05-12T06:17:16.795Z,17.77
2023-05-12T06:20:03.262Z,16.08
2023-05-12T06:22:50.180Z,13.00
2023-05-12T06:25:37.346Z,16.13
2023-05-12T06:28:23.564Z,14.88
2023-05-12T06:31:10.603Z,11.90
2023-05-12T06:33:57.093Z,12.43
2023-05-12T06:36:43.379Z,12.60
2023-05-12T06:39:29.482Z,11.70
2023-05-12T06:42:15.809Z,10.60
2023-05-12T06:45:02.228Z,10.07
2023-05-12T06:47:50.482Z,7.00
2023-05-12T06:50:37.474Z,6.95
2023-05-12T06:53:25.469Z,8.80
2023-05-12T06:56:17.039Z,8.82
2023-05-12T06:59:05.277Z,7.93
2023-05-12T07:01:52.733Z,14.85
2023-05-12T07:04:39.470Z,12.57
2023-05-12T07:07:25.856Z,8.50
2023-05-12T07:10:13.411Z,7.10
2023-05-12T07:13:00.608Z,8.95
2023-05-12T07:15:46.707Z,10.95
2023-05-12T07:18:33.462Z,10.32
2023-05-12T07:21:20.399Z,8.38
2023-05-12T07:24:06.813Z,7.05
2023-05-12T07:26:53.939Z,11.65
2023-05-12T07:29:41.045Z,7.80
2023-05-12T07:32:28.083Z,7.40
2023-05-12T07:35:14.561Z,9.80
2023-05-12T07:38:01.595Z,11.35
2023-05-12T07:40:48.651Z,4.90
2023-05-12T07:43:35.783Z,11.90
2023-05-12T07:46:22.835Z,5.18
2023-05-12T07:49:09.508Z,8.73
2023-05-12T07:51:56.660Z,7.40
2023-05-12T07:54:43.589Z,9.93
2023-05-12T07:57:30.005Z,10.70
2023-05-12T08:00:16.537Z,12.13
2023-05-12T08:03:03.719Z,12.90
2023-05-12T08:05:50.064Z,6.85
2023-05-12T08:08:36.752Z,7.65
2023-05-12T08:11:23.117Z,7.13
2023-05-12T08:14:09.087Z,5.18
2023-05-12T08:16:55.452Z,6.13
2023-05-12T08:19:42.010Z,14.23
2023-05-12T08:22:28.930Z,12.68
2023-05-12T08:25:15.846Z,14.75
2023-05-12T08:28:02.256Z,8.98
2023-05-12T08:30:48.707Z,7.07
2023-05-12T08:33:36.457Z,13.85
2023-05-12T08:36:22.810Z,9.45
2023-05-12T08:39:10.388Z,13.20
2023-05-12T08:42:03.398Z,8.60
2023-05-12T08:44:50.205Z,7.25
2023-05-12T08:47:37.833Z,7.05
2023-05-12T08:50:24.155Z,8.73
2023-05-12T08:53:14.812Z,10.32
2023-05-12T08:58:57.099Z,11.70
2023-05-12T09:01:43.813Z,7.72
2023-05-12T09:04:32.379Z,8.93
2023-05-12T09:07:24.550Z,6.72
2023-05-12T09:10:25.985Z,7.07
2023-05-12T09:13:26.563Z,7.03
2023-05-12T09:16:14.247Z,10.10
2023-05-12T09:19:03.535Z,6.93
2023-05-12T09:21:50.772Z,7.90
2023-05-12T09:24:40.620Z,10.07
2023-05-12T09:27:30.922Z,10.25
2023-05-12T09:30:17.967Z,7.30
2023-05-12T09:33:23.013Z,11.95
2023-05-12T09:36:09.473Z,6.78
2023-05-12T09:39:42.426Z,8.85
2023-05-12T09:42:30.127Z,7.85
2023-05-12T09:45:16.609Z,6.05
2023-05-12T09:48:12.973Z,5.00
2023-05-12T09:50:59.145Z,16.10
2023-05-12T09:53:47.067Z,7.38
2023-05-12T09:56:35.330Z,5.32
2023-05-12T09:59:21.788Z,9.23
2023-05-12T10:02:09.822Z,11.80
2023-05-12T10:04:59.507Z,6.38
2023-05-12T10:07:46.492Z,12.57
2023-05-12T10:10:33.656Z,9.48
2023-05-12T10:13:20.013Z,6.82
2023-05-12T10:16:06.841Z,5.63
2023-05-12T10:18:52.977Z,6.53
2023-05-12T10:21:39.891Z,6.13
2023-05-12T10:24:29.417Z,6.30
2023-05-12T10:27:17.458Z,6.88
2023-05-12T10:30:04.940Z,9.02
2023-05-12T10:32:53.135Z,9.25
2023-05-12T10:35:40.614Z,8.02
2023-05-12T10:38:27.439Z,12.63
2023-05-12T10:41:14.504Z,6.32
2023-05-12T10:44:01.101Z,12.32
2023-05-12T10:46:58.022Z,4.20
2023-05-12T10:49:44.411Z,10.43
2023-05-12T10:52:30.670Z,6.05
2023-05-12T10:55:17.867Z,6.95
2023-05-12T10:58:09.990Z,10.23
2023-05-12T11:01:05.204Z,12.40
2023-05-12T11:03:52.774Z,9.90
2023-05-12T11:06:40.960Z,13.00
2023-05-12T11:09:27.757Z,6.32
2023-05-12T11:12:15.593Z,7.90
2023-05-12T11:15:03.452Z,8.40
2023-05-12T11:17:49.851Z,7.30
2023-05-12T11:21:01.985Z,7.00
2023-05-12T11:23:51.409Z,9.48
2023-05-12T11:26:37.315Z,9.65
2023-05-12T11:29:50.941Z,9.38
2023-05-12T11:35:26.654Z,9.55
2023-05-12T11:38:17.588Z,6.55
2023-05-12T11:41:04.378Z,11.00
2023-05-12T11:43:50.670Z,9.07
2023-05-12T11:46:36.683Z,12.13
2023-05-12T11:49:22.910Z,9.75
2023-05-12T11:52:09.429Z,13.70
2023-05-12T11:55:00.846Z,7.57
2023-05-12T11:57:55.918Z,11.65
2023-05-12T12:00:42.322Z,9.80
2023-05-12T12:03:28.686Z,8.95
2023-05-12T12:06:15.257Z,6.80
2023-05-12T12:09:02.301Z,7.70
2023-05-12T12:11:48.969Z,6.40
2023-05-12T12:14:37.231Z,7.55
2023-05-12T12:17:30.943Z,6.90
2023-05-12T12:20:18.934Z,9.52
2023-05-12T12:23:05.390Z,8.07
2023-05-12T12:25:51.715Z,7.57
2023-05-12T12:28:38.167Z,7.28
2023-05-12T12:31:24.887Z,6.07
2023-05-12T12:34:11.560Z,9.07
2023-05-12T12:36:58.190Z,7.60
2023-05-12T12:39:44.377Z,9.65
2023-05-12T12:42:30.922Z,9.65
2023-05-12T12:45:19.347Z,11.48
2023-05-12T12:48:09.261Z,12.15
2023-05-12T12:50:56.155Z,12.00
2023-05-12T12:53:46.378Z,6.55
2023-05-12T12:56:32.427Z,12.02
2023-05-12T12:59:18.663Z,12.48
2023-05-12T13:02:05.027Z,8.32
2023-05-12T13:04:51.286Z,6.88
2023-05-12T13:07:37.620Z,7.03
2023-05-12T13:10:26.132Z,9.63
2023-05-12T13:13:12.482Z,6.90
2023-05-12T13:15:58.721Z,7.80
2023-05-12T13:18:45.957Z,9.63
2023-05-12T13:21:32.597Z,9.30
2023-05-12T13:24:19.284Z,11.18
2023-05-12T13:27:08.455Z,5.10
2023-05-12T13:29:54.760Z,10.93
2023-05-12T13:32:40.995Z,9.32
2023-05-12T13:35:27.020Z,10.15
2023-05-12T13:38:13.688Z,6.95
2023-05-12T13:41:00.188Z,6.03
2023-05-12T13:43:46.549Z,4.95
2023-05-12T13:46:33.232Z,8.88
2023-05-12T13:49:22.758Z,9.63
2023-05-12T13:52:09.011Z,6.97
2023-05-12T13:54:55.475Z,7.68
2023-05-12T13:57:41.585Z,10.18
2023-05-12T14:00:29.997Z,8.27
2023-05-12T14:03:16.657Z,7.03
2023-05-12T14:06:03.235Z,7.20
2023-05-12T14:08:49.483Z,10.43
2023-05-12T14:11:36.298Z,7.70
2023-05-12T14:14:22.499Z,7.72
2023-05-12T14:17:08.679Z,10.02
2023-05-12T14:19:54.884Z,3.95
2023-05-12T14:22:42.617Z,10.35
2023-05-12T14:25:30.824Z,11.90
2023-05-12T14:28:17.497Z,11.98
2023-05-12T14:31:04.328Z,7.85
2023-05-12T14:33:50.484Z,10.18
2023-05-12T14:36:37.760Z,11.13
2023-05-12T14:39:23.834Z,10.65
2023-05-12T14:42:32.460Z,6.93
2023-05-12T14:45:19.509Z,10.30
2023-05-12T14:48:08.947Z,8.60
2023-05-12T14:50:55.995Z,9.73
2023-05-12T14:53:42.548Z,4.68
2023-05-12T14:56:28.939Z,8.23
2023-05-12T14:59:15.259Z,7.45
2023-05-12T15:02:01.378Z,8.60
2023-05-12T15:04:47.518Z,8.68
2023-05-12T15:07:34.233Z,8.18
2023-05-12T15:10:20.749Z,7.25
2023-05-12T15:13:07.218Z,7.00
2023-05-12T15:15:55.357Z,8.43
2023-05-12T15:18:43.123Z,10.88
2023-05-12T15:21:29.508Z,7.78
2023-05-12T15:24:15.804Z,7.38
2023-05-12T15:27:02.445Z,5.93
2023-05-12T15:29:48.460Z,8.25
2023-05-12T15:32:34.716Z,9.52
2023-05-12T15:35:21.763Z,7.18
2023-05-12T15:38:08.421Z,12.57
2023-05-12T15:40:56.167Z,8.68
2023-05-12T15:43:42.573Z,5.75
2023-05-12T15:46:28.804Z,10.82
2023-05-12T15:49:15.568Z,8.70
2023-05-12T15:52:02.626Z,9.63
2023-05-12T15:54:49.155Z,10.80
2023-05-12T15:57:35.524Z,9.13
2023-05-12T16:00:22.741Z,8.95
2023-05-12T16:03:09.327Z,11.07
2023-05-12T16:05:55.998Z,6.13
2023-05-12T16:08:42.465Z,6.25
2023-05-12T16:11:29.812Z,9.70
2023-05-12T16:14:16.202Z,17.65
2023-05-12T16:17:02.947Z,13.13
2023-05-12T16:19:51.071Z,9.75
2023-05-12T16:22:37.832Z,8.73
2023-05-12T16:25:24.013Z,11.98
2023-05-12T16:28:10.232Z,13.45
2023-05-12T16:30:56.742Z,9.93
2023-05-12T16:33:43.033Z,7.25
2023-05-12T16:36:30.017Z,9.02
2023-05-12T16:39:16.224Z,8.77
2023-05-12T16:42:02.478Z,11.90
2023-05-12T16:44:48.685Z,7.13
2023-05-12T16:47:35.508Z,10.38
2023-05-12T16:50:22.568Z,12.13
2023-05-12T16:53:09.098Z,7.60
2023-05-12T16:55:56.037Z,8.70
2023-05-12T16:58:42.571Z,15.75
2023-05-12T17:01:32.020Z,12.27
2023-05-12T17:04:18.101Z,11.30
2023-05-12T17:07:04.260Z,11.30
2023-05-12T17:09:50.646Z,14.20
2023-05-12T17:12:37.796Z,11.25
2023-05-12T17:15:27.454Z,10.50
2023-05-12T17:21:04.526Z,21.33
2023-05-12T17:23:50.757Z,18.63
2023-05-12T17:26:38.008Z,16.55
2023-05-12T17:29:24.494Z,16.60
2023-05-12T17:32:10.933Z,20.55
2023-05-12T17:34:58.463Z,14.85
2023-05-12T17:37:44.806Z,16.90
2023-05-12T17:40:32.235Z,8.82
2023-05-12T17:43:18.928Z,14.23
2023-05-12T17:46:05.491Z,13.45
2023-05-12T17:48:52.016Z,59.38
2023-05-12T17:51:39.860Z,38.78
2023-05-12T17:54:26.279Z,20.20
2023-05-12T17:57:13.416Z,12.52
2023-05-12T18:00:00.401Z,16.83
2023-05-12T18:02:47.062Z,20.00
2023-05-12T18:05:35.511Z,22.45
2023-05-12T18:08:22.765Z,14.73
2023-05-12T18:11:08.962Z,7.75
2023-05-12T18:13:55.654Z,12.90
2023-05-12T18:16:42.557Z,8.75
2023-05-12T18:19:28.815Z,11.40
2023-05-12T18:22:20.194Z,10.57
2023-05-12T18:25:06.788Z,8.65
2023-05-12T18:27:53.551Z,5.68
2023-05-12T18:31:09.260Z,5.78
2023-05-12T18:34:01.299Z,7.75
2023-05-12T18:36:47.525Z,7.40
2023-05-12T18:39:34.399Z,7.65
2023-05-12T18:42:24.063Z,11.90
2023-05-12T18:45:18.655Z,7.05
2023-05-12T18:48:05.130Z,10.35
2023-05-12T18:50:51.960Z,6.13
2023-05-12T18:53:38.342Z,6.22
2023-05-12T18:56:25.362Z,9.60
2023-05-12T18:59:12.527Z,9.23
2023-05-12T19:02:00.129Z,6.85
2023-05-12T19:04:47.144Z,9.50
2023-05-12T19:07:43.620Z,8.13
2023-05-12T19:10:46.511Z,6.82
2023-05-12T19:13:33.251Z,11.15
2023-05-12T19:16:20.319Z,7.40
2023-05-12T19:19:08.100Z,7.85
2023-05-12T19:21:54.424Z,13.20
2023-05-12T19:24:42.047Z,8.15
2023-05-12T19:27:29.330Z,5.72
2023-05-12T19:30:16.309Z,12.43
2023-05-12T19:33:29.709Z,10.07
2023-05-12T19:36:38.120Z,12.13
2023-05-12T19:39:26.906Z,8.82
2023-05-12T19:45:45.464Z,10.48
2023-05-12T19:48:32.368Z,8.50
2023-05-12T19:51:22.116Z,6.68
2023-05-12T19:57:52.983Z,10.32
2023-05-12T20:01:01.744Z,7.43
2023-05-12T20:03:48.515Z,6.20
2023-05-12T20:06:34.932Z,8.00
2023-05-12T20:09:23.307Z,9.30
2023-05-12T20:12:10.158Z,8.98
2023-05-12T20:14:57.245Z,9.93
2023-05-12T20:17:43.652Z,7.28
2023-05-12T20:20:30.591Z,7.28
2023-05-12T20:23:17.580Z,10.85
2023-05-12T20:26:04.990Z,12.80
2023-05-12T20:28:51.652Z,10.98
2023-05-12T20:31:38.865Z,14.07
2023-05-12T20:34:25.811Z,7.90
2023-05-12T20:37:12.868Z,15.68
2023-05-12T20:39:59.167Z,13.57
2023-05-12T20:46:14.313Z,8.23
2023-05-12T20:49:01.027Z,12.35
2023-05-12T20:51:47.276Z,10.90
2023-05-12T20:54:33.603Z,14.05
2023-05-12T20:57:19.659Z,11.35
2023-05-12T21:00:07.671Z,10.50
2023-05-12T21:02:54.692Z,11.18
2023-05-12T21:05:42.729Z,7.55
2023-05-12T21:08:29.118Z,11.18
2023-05-12T21:11:16.345Z,9.55
2023-05-12T21:14:02.895Z,12.50
2023-05-12T21:16:49.382Z,9.02
2023-05-12T21:19:36.159Z,9.10
2023-05-12T21:22:22.261Z,9.13
2023-05-12T21:25:08.878Z,7.13
2023-05-12T21:27:55.666Z,12.85
2023-05-12T21:30:41.994Z,12.48
2023-05-12T21:33:28.474Z,7.03
2023-05-12T21:36:14.928Z,10.77
2023-05-12T21:39:01.436Z,11.50
2023-05-12T21:41:47.939Z,16.13
2023-05-12T21:44:34.741Z,14.40
2023-05-12T21:47:21.117Z,7.55
2023-05-12T21:50:07.642Z,12.50
2023-05-12T21:52:54.677Z,12.73
2023-05-12T21:55:42.011Z,9.80
2023-05-12T21:58:28.637Z,15.00
2023-05-12T22:01:15.811Z,7.35
2023-05-12T22:04:02.044Z,9.68
2023-05-12T22:06:48.913Z,10.82
2023-05-12T22:09:35.298Z,9.20
2023-05-12T22:12:22.100Z,12.00
2023-05-12T22:15:09.626Z,10.40
2023-05-12T22:17:55.906Z,10.10
2023-05-12T22:20:41.861Z,7.22
2023-05-12T22:23:28.205Z,10.82
2023-05-12T22:26:14.394Z,10.93
2023-05-12T22:29:01.978Z,12.02
2023-05-12T22:31:48.261Z,9.02
2023-05-12T22:34:34.576Z,11.63
2023-05-12T22:37:21.277Z,12.52
2023-05-12T22:40:08.090Z,14.10
2023-05-12T22:42:54.374Z,8.88
2023-05-12T22:45:40.759Z,9.80
2023-05-12T22:48:27.275Z,10.32
2023-05-12T22:51:14.026Z,9.77
2023-05-12T22:54:00.633Z,8.13
2023-05-12T22:56:47.167Z,11.15
2023-05-12T22:59:34.007Z,12.18
2023-05-12T23:02:20.246Z,13.85
2023-05-12T23:05:06.586Z,11.85
2023-05-12T23:07:53.263Z,11.02
2023-05-12T23:10:42.247Z,10.60
2023-05-12T23:13:30.012Z,9.70
2023-05-12T23:16:16.471Z,12.23
2023-05-12T23:19:02.762Z,12.60
2023-05-12T23:21:48.988Z,11.23
2023-05-12T23:24:36.771Z,10.45
2023-05-12T23:27:23.245Z,11.07
2023-05-12T23:30:09.893Z,12.40
2023-05-12T23:32:56.238Z,12.45
2023-05-12T23:35:44.588Z,12.38
2023-05-12T23:38:31.240Z,15.30
2023-05-12T23:41:17.501Z,10.80
2023-05-12T23:44:03.625Z,9.82
2023-05-12T23:46:49.712Z,14.50
2023-05-12T23:49:36.618Z,10.93
2023-05-12T23:52:22.976Z,12.88
2023-05-12T23:55:09.462Z,12.98
2023-05-12T23:57:56.334Z,13.63
